Time;durP1;ratioP1;P1;durP2;ratioP2;P2;SDS_P1;SDS_P2;PMS_P1;PMS_P2;Temp;Humidity;BMP_temperature;BMP_pressure;BME280_temperature;BME280_humidity;BME280_pressure;Samples;Min_cycle;Max_cycle;Signal;HPM_P1;HPM_P2
2021/07/02 00:01:23;;;;;;;3.72;3.22;;;21.10;71.10;;;;;;5112890;28;20482;-41
2021/07/02 00:03:49;;;;;;;3.92;3.28;;;21.00;71.80;;;;;;5114209;28;20488;-46
2021/07/02 00:06:15;;;;;;;4.65;3.28;;;21.00;71.10;;;;;;5114424;28;20046;-46
2021/07/02 00:08:40;;;;;;;3.90;3.50;;;21.00;71.10;;;;;;5114481;28;20402;-42
2021/07/02 00:11:06;;;;;;;3.35;3.05;;;21.00;71.10;;;;;;5112620;28;20063;-44
2021/07/02 00:13:32;;;;;;;3.95;3.50;;;21.00;71.10;;;;;;5114234;28;20063;-47
2021/07/02 00:15:58;;;;;;;4.82;3.65;;;21.10;71.10;;;;;;5114297;28;20105;-41
2021/07/02 00:18:23;;;;;;;3.97;3.47;;;21.00;71.10;;;;;;5114299;28;20047;-40
2021/07/02 00:20:49;;;;;;;3.90;3.15;;;21.00;71.10;;;;;;5113895;28;20047;-41
2021/07/02 00:23:15;;;;;;;5.10;3.42;;;21.10;71.10;;;;;;5112624;28;20126;-50
2021/07/02 00:25:41;;;;;;;4.00;3.60;;;21.10;71.10;;;;;;5114379;28;20063;-41
2021/07/02 00:28:07;;;;;;;3.20;2.63;;;21.00;71.10;;;;;;5114078;28;20484;-52
2021/07/02 00:30:34;;;;;;;3.40;3.00;;;21.10;71.10;;;;;;5114177;28;20100;-43
2021/07/02 00:33:00;;;;;;;5.40;3.42;;;21.00;71.10;;;;;;5112253;28;20448;-40
2021/07/02 00:35:26;;;;;;;5.13;3.83;;;21.00;71.10;;;;;;5113800;28;20078;-51
2021/07/02 00:37:52;;;;;;;5.32;3.47;;;21.00;71.10;;;;;;5114123;28;20127;-50
2021/07/02 00:40:18;;;;;;;4.60;3.40;;;21.10;71.20;;;;;;5113729;28;20071;-46
2021/07/02 00:42:43;;;;;;;3.90;3.05;;;21.00;71.10;;;;;;5112009;28;20039;-49
2021/07/02 00:45:10;;;;;;;3.90;3.50;;;21.00;71.10;;;;;;5113929;28;20122;-49
2021/07/02 00:47:35;;;;;;;4.00;3.55;;;21.00;71.10;;;;;;5113702;28;20035;-44
2021/07/02 00:50:05;;;;;;;4.60;3.47;;;21.00;71.10;;;;;;5113501;28;20044;-48
2021/07/02 00:52:31;;;;;;;4.78;3.70;;;21.00;71.10;;;;;;5113529;28;20476;-49
2021/07/02 00:54:57;;;;;;;3.63;3.13;;;21.00;71.10;;;;;;5111452;28;20058;-46
2021/07/02 00:57:23;;;;;;;3.75;3.20;;;21.00;71.10;;;;;;5100360;28;20446;-40
2021/07/02 00:59:49;;;;;;;3.70;3.05;;;21.00;71.10;;;;;;5093477;28;20056;-51
2021/07/02 01:02:16;;;;;;;4.65;3.35;;;21.00;71.10;;;;;;5093333;28;20048;-45
2021/07/02 01:04:45;;;;;;;4.20;3.55;;;21.00;71.10;;;;;;5094452;28;20044;-51
2021/07/02 01:07:11;;;;;;;3.60;2.92;;;21.00;71.20;;;;;;5075317;28;20097;-45
2021/07/02 01:09:39;;;;;;;3.67;3.00;;;21.00;71.10;;;;;;5075210;28;20058;-41
2021/07/02 01:12:06;;;;;;;4.50;3.33;;;21.00;71.10;;;;;;5093176;28;20078;-45
2021/07/02 01:14:31;;;;;;;4.10;3.47;;;21.00;71.10;;;;;;5094144;28;20376;-48
2021/07/02 01:16:58;;;;;;;4.05;3.13;;;21.00;71.10;;;;;;5093279;28;20071;-43
2021/07/02 01:19:23;;;;;;;3.90;3.30;;;21.00;71.10;;;;;;5093435;28;20059;-51
2021/07/02 01:21:53;;;;;;;3.55;3.22;;;21.00;71.10;;;;;;5092976;28;20048;-42
2021/07/02 01:24:19;;;;;;;3.72;3.30;;;21.00;71.10;;;;;;5093383;28;20140;-50
2021/07/02 01:26:47;;;;;;;4.00;3.10;;;21.00;71.20;;;;;;5094632;28;20529;-41
2021/07/02 01:29:13;;;;;;;4.57;3.30;;;21.00;71.10;;;;;;5093835;28;20072;-42
2021/07/02 01:31:39;;;;;;;3.72;3.08;;;21.00;71.20;;;;;;5093027;28;20079;-43
2021/07/02 01:34:04;;;;;;;3.80;3.25;;;21.00;71.20;;;;;;5093059;28;20517;-43
2021/07/02 01:36:30;;;;;;;5.20;3.30;;;20.90;71.10;;;;;;5093986;28;20044;-41
2021/07/02 01:38:56;;;;;;;4.22;3.35;;;21.00;71.20;;;;;;5092384;28;20048;-41
2021/07/02 01:41:22;;;;;;;5.63;3.42;;;20.90;71.20;;;;;;5092860;28;20404;-41
2021/07/02 01:43:48;;;;;;;3.97;3.50;;;21.00;71.20;;;;;;5092464;28;20104;-47
2021/07/02 01:46:14;;;;;;;4.15;3.25;;;21.00;71.20;;;;;;5093161;28;20130;-42
2021/07/02 01:48:40;;;;;;;4.50;3.50;;;21.00;71.20;;;;;;5112733;28;20051;-41
2021/07/02 01:51:06;;;;;;;3.70;3.17;;;21.00;71.20;;;;;;5112241;28;20051;-45
2021/07/02 01:53:31;;;;;;;3.55;2.88;;;20.90;71.20;;;;;;5112547;28;20554;-41
2021/07/02 01:55:57;;;;;;;4.18;3.40;;;21.00;71.20;;;;;;5110754;28;20495;-38
2021/07/02 01:58:23;;;;;;;3.55;3.15;;;21.00;71.20;;;;;;5100507;28;20055;-41
2021/07/02 02:00:49;;;;;;;4.07;3.10;;;21.00;71.20;;;;;;5092363;28;20071;-43
2021/07/02 02:03:15;;;;;;;3.70;3.15;;;21.00;71.30;;;;;;5092242;28;20076;-41
2021/07/02 02:05:41;;;;;;;3.95;3.08;;;20.90;71.20;;;;;;5093176;28;20075;-50
2021/07/02 02:08:07;;;;;;;3.35;2.78;;;21.00;71.30;;;;;;5092239;28;20082;-40
2021/07/02 02:10:33;;;;;;;4.45;3.00;;;20.90;71.20;;;;;;5091509;28;20067;-37
2021/07/02 02:12:58;;;;;;;3.45;2.92;;;20.90;71.20;;;;;;5091716;28;20147;-42
2021/07/02 02:15:24;;;;;;;4.03;3.03;;;20.90;71.20;;;;;;5091785;28;20060;-43
2021/07/02 02:17:50;;;;;;;4.20;3.10;;;21.00;71.30;;;;;;5092574;28;20135;-43
2021/07/02 02:20:16;;;;;;;3.83;3.15;;;21.00;71.20;;;;;;5091991;28;20101;-40
2021/07/02 02:22:42;;;;;;;3.17;2.83;;;21.00;71.20;;;;;;5091674;28;20060;-47
2021/07/02 02:25:08;;;;;;;3.15;2.85;;;20.90;71.20;;;;;;5091422;28;20200;-42
2021/07/02 02:27:34;;;;;;;3.63;3.08;;;21.00;71.30;;;;;;5092616;28;20048;-49
2021/07/02 02:30:00;;;;;;;3.80;3.03;;;21.00;71.30;;;;;;5108939;28;20369;-46
2021/07/02 02:32:26;;;;;;;4.07;3.10;;;20.90;71.20;;;;;;5112035;28;20050;-41
2021/07/02 02:34:52;;;;;;;3.55;3.00;;;20.90;71.20;;;;;;5112049;28;20188;-46
2021/07/02 02:37:18;;;;;;;3.00;2.70;;;20.90;71.20;;;;;;5110136;28;20480;-51
2021/07/02 02:39:43;;;;;;;3.22;2.92;;;21.00;71.30;;;;;;5110147;28;20438;-48
2021/07/02 02:42:09;;;;;;;3.47;3.13;;;20.90;71.20;;;;;;5111558;28;20097;-47
2021/07/02 02:44:35;;;;;;;3.17;2.75;;;20.90;71.20;;;;;;5111828;28;20417;-45
2021/07/02 02:47:00;;;;;;;3.65;3.05;;;20.90;71.30;;;;;;5111970;28;20067;-43
2021/07/02 02:49:26;;;;;;;3.70;2.78;;;20.90;71.30;;;;;;5110184;28;20563;-48
2021/07/02 02:51:52;;;;;;;3.15;2.83;;;20.90;71.30;;;;;;5111838;28;20471;-46
2021/07/02 02:54:18;;;;;;;4.32;3.13;;;20.80;71.20;;;;;;5111931;28;20054;-46
2021/07/02 02:59:28;;;;;;;3.95;3.28;;;20.90;71.30;;;;;;5109794;28;20055;-40
2021/07/02 03:01:54;;;;;;;3.53;2.90;;;20.90;71.30;;;;;;5093850;28;20096;-50
2021/07/02 03:04:20;;;;;;;3.63;3.13;;;20.90;71.30;;;;;;5095372;28;20488;-50
2021/07/02 03:06:46;;;;;;;3.10;2.70;;;20.90;71.30;;;;;;5095312;28;20141;-41
2021/07/02 03:09:12;;;;;;;3.53;3.05;;;20.90;71.30;;;;;;5096086;28;20127;-50
2021/07/02 03:11:37;;;;;;;3.92;3.05;;;20.90;71.30;;;;;;5094612;28;20433;-44
2021/07/02 03:14:03;;;;;;;3.53;3.00;;;20.90;71.40;;;;;;5094233;28;20071;-48
2021/07/02 03:16:30;;;;;;;3.97;3.05;;;20.90;71.30;;;;;;5094076;28;20105;-39
2021/07/02 03:18:56;;;;;;;3.75;3.00;;;20.90;71.30;;;;;;5094241;28;20044;-47
2021/07/02 03:21:22;;;;;;;3.60;3.00;;;20.90;71.30;;;;;;5095354;28;20046;-48
2021/07/02 03:23:48;;;;;;;4.15;3.08;;;20.90;71.40;;;;;;5095312;28;20515;-46
2021/07/02 03:26:16;;;;;;;3.47;2.83;;;20.90;71.30;;;;;;5095300;28;20040;-46
2021/07/02 03:28:42;;;;;;;3.63;2.72;;;20.90;71.30;;;;;;5094626;28;20048;-47
2021/07/02 03:31:08;;;;;;;3.85;2.97;;;20.90;71.30;;;;;;5102164;28;20050;-45
2021/07/02 03:33:34;;;;;;;3.00;2.58;;;20.90;71.30;;;;;;5115775;28;20051;-45
2021/07/02 03:35:59;;;;;;;3.28;2.60;;;20.90;71.30;;;;;;5115730;28;20043;-45
2021/07/02 03:38:25;;;;;;;3.58;3.00;;;20.90;71.30;;;;;;5115330;28;20044;-49
2021/07/02 03:40:51;;;;;;;4.43;2.90;;;20.80;71.20;;;;;;5113787;28;20172;-46
2021/07/02 03:43:17;;;;;;;3.20;2.70;;;20.90;71.30;;;;;;5115368;28;20044;-47
2021/07/02 03:45:44;;;;;;;2.83;2.58;;;20.90;71.30;;;;;;5115593;28;20044;-44
2021/07/02 03:48:10;;;;;;;3.28;2.95;;;20.90;71.30;;;;;;5115626;28;20052;-49
2021/07/02 03:50:36;;;;;;;3.15;2.72;;;20.90;71.30;;;;;;5115296;28;20491;-49
2021/07/02 03:53:02;;;;;;;2.83;2.53;;;20.90;71.30;;;;;;5113715;28;20050;-46
2021/07/02 03:55:28;;;;;;;3.28;2.90;;;20.90;71.30;;;;;;5115722;28;20048;-44
2021/07/02 03:57:54;;;;;;;4.05;2.97;;;20.90;71.40;;;;;;5115334;28;20050;-52
2021/07/02 04:00:20;;;;;;;2.85;2.55;;;20.90;71.40;;;;;;5114626;28;20104;-49
2021/07/02 04:02:45;;;;;;;2.65;2.40;;;20.90;71.30;;;;;;5113121;28;20244;-47
2021/07/02 04:05:12;;;;;;;4.05;3.10;;;20.80;71.30;;;;;;5113913;28;20040;-45
2021/07/02 04:07:38;;;;;;;3.35;2.70;;;20.80;71.30;;;;;;5096113;28;20048;-48
2021/07/02 04:10:04;;;;;;;3.85;2.90;;;20.90;71.30;;;;;;5114663;28;20054;-47
2021/07/02 04:12:30;;;;;;;3.35;3.03;;;20.90;71.30;;;;;;5114259;28;20044;-42
2021/07/02 04:14:56;;;;;;;3.22;2.70;;;20.90;71.40;;;;;;5112025;28;20051;-47
2021/07/02 04:17:22;;;;;;;2.75;2.38;;;20.90;71.40;;;;;;5114869;28;20108;-47
2021/07/02 04:19:48;;;;;;;3.78;2.47;;;20.90;71.30;;;;;;5114623;28;20453;-44
2021/07/02 04:22:13;;;;;;;3.53;2.70;;;20.90;71.40;;;;;;5114480;28;20044;-47
2021/07/02 04:24:39;;;;;;;3.47;2.95;;;20.80;71.30;;;;;;5112912;28;20488;-43
2021/07/02 04:27:05;;;;;;;3.15;2.50;;;20.80;71.30;;;;;;5114510;28;20381;-44
2021/07/02 04:29:32;;;;;;;2.70;2.40;;;20.90;71.40;;;;;;5114262;28;20043;-45
2021/07/02 04:31:57;;;;;;;3.05;2.63;;;20.80;71.30;;;;;;5114131;28;20048;-46
2021/07/02 04:34:23;;;;;;;2.80;2.42;;;20.80;71.30;;;;;;5112656;28;20280;-45
2021/07/02 04:36:49;;;;;;;3.60;2.40;;;20.90;71.40;;;;;;5113938;28;20075;-48
2021/07/02 04:39:15;;;;;;;3.05;2.60;;;20.80;71.30;;;;;;5114291;28;20489;-48
2021/07/02 04:41:41;;;;;;;2.92;2.60;;;20.80;71.30;;;;;;5114092;28;20047;-43
2021/07/02 04:44:07;;;;;;;4.00;2.95;;;20.90;71.40;;;;;;5114107;28;20082;-45
2021/07/02 04:46:32;;;;;;;2.80;2.45;;;20.80;71.30;;;;;;5111722;28;20497;-45
2021/07/02 04:48:58;;;;;;;3.38;2.83;;;20.80;71.30;;;;;;5113800;28;20062;-46
2021/07/02 04:51:24;;;;;;;2.78;2.30;;;20.80;71.30;;;;;;5113971;28;20049;-44
2021/07/02 04:53:50;;;;;;;3.50;2.92;;;20.80;71.30;;;;;;5113975;28;20078;-42
2021/07/02 04:56:16;;;;;;;2.92;2.50;;;20.90;71.40;;;;;;5111949;28;20131;-43
2021/07/02 04:58:43;;;;;;;3.75;3.03;;;20.80;71.30;;;;;;5113689;28;20151;-44
2021/07/02 05:01:12;;;;;;;3.08;2.65;;;20.80;71.30;;;;;;5113339;28;20114;-43
2021/07/02 05:03:38;;;;;;;3.45;3.00;;;20.90;71.40;;;;;;5094190;28;20039;-44
2021/07/02 05:06:06;;;;;;;3.58;2.60;;;20.80;71.30;;;;;;5111646;28;20056;-41
2021/07/02 05:08:32;;;;;;;3.00;2.58;;;20.80;71.30;;;;;;5113195;28;20062;-44
2021/07/02 05:10:58;;;;;;;3.45;2.50;;;20.90;71.40;;;;;;5093629;28;20127;-44
2021/07/02 05:13:24;;;;;;;3.08;2.63;;;20.90;71.40;;;;;;5092985;28;20078;-44
2021/07/02 05:15:50;;;;;;;2.88;2.50;;;20.90;71.40;;;;;;5092472;28;20080;-47
2021/07/02 05:18:16;;;;;;;3.58;2.72;;;20.80;71.30;;;;;;5093789;28;20044;-46
2021/07/02 05:20:46;;;;;;;3.22;2.60;;;20.90;71.40;;;;;;5092978;28;20056;-43
2021/07/02 05:23:12;;;;;;;3.08;2.30;;;20.90;71.40;;;;;;5092899;28;20044;-46
2021/07/02 05:25:38;;;;;;;2.58;2.17;;;20.90;71.40;;;;;;5091986;28;20067;-42
2021/07/02 05:28:04;;;;;;;4.68;3.05;;;20.90;72.10;;;;;;5093554;28;20052;-43
2021/07/02 05:30:31;;;;;;;3.28;2.70;;;20.80;71.30;;;;;;5092269;28;20177;-48
2021/07/02 05:32:57;;;;;;;3.33;2.72;;;20.80;71.30;;;;;;5092542;28;20052;-46
2021/07/02 05:35:23;;;;;;;3.75;2.50;;;20.90;71.40;;;;;;5092242;28;20055;-47
2021/07/02 05:37:48;;;;;;;2.58;2.38;;;20.80;71.30;;;;;;5093508;28;20043;-46
2021/07/02 05:40:16;;;;;;;2.88;2.58;;;20.90;71.40;;;;;;5092296;28;20071;-47
2021/07/02 05:42:42;;;;;;;2.83;2.40;;;20.80;71.30;;;;;;5092438;28;20048;-45
2021/07/02 05:45:09;;;;;;;2.97;2.67;;;20.90;71.40;;;;;;5092391;28;20052;-42
2021/07/02 05:47:50;;;;;;;3.63;2.42;;;20.90;71.40;;;;;;5092415;28;20506;-48
2021/07/02 05:50:17;;;;;;;3.70;2.90;;;20.90;71.40;;;;;;5092988;28;20048;-49
2021/07/02 05:52:43;;;;;;;2.88;2.58;;;20.80;71.30;;;;;;5092249;28;20054;-47
2021/07/02 05:55:10;;;;;;;2.97;2.53;;;20.90;71.40;;;;;;5092199;28;20059;-46
2021/07/02 05:57:36;;;;;;;2.92;2.30;;;20.90;71.40;;;;;;5092273;28;20048;-49
2021/07/02 06:00:04;;;;;;;2.67;2.20;;;20.90;71.40;;;;;;5093032;28;20044;-47
2021/07/02 06:02:30;;;;;;;3.13;2.83;;;20.90;71.40;;;;;;5092141;28;20051;-49
2021/07/02 06:04:57;;;;;;;2.58;2.38;;;20.80;71.30;;;;;;5092044;28;20105;-42
2021/07/02 06:07:23;;;;;;;2.67;2.47;;;20.80;71.30;;;;;;5092448;28;20048;-47
2021/07/02 06:09:49;;;;;;;2.97;2.28;;;20.90;71.40;;;;;;5093205;28;20367;-48
2021/07/02 06:12:35;;;;;;;3.35;2.40;;;20.90;71.40;;;;;;5076589;28;20060;-48
2021/07/02 06:15:00;;;;;;;2.80;2.47;;;20.80;71.30;;;;;;5110133;28;20081;-47
2021/07/02 06:17:26;;;;;;;2.85;2.30;;;20.80;71.30;;;;;;5112647;28;20044;-51
2021/07/02 06:19:52;;;;;;;2.47;2.28;;;20.80;71.30;;;;;;5112314;28;20131;-46
2021/07/02 06:22:18;;;;;;;3.50;2.83;;;20.80;71.30;;;;;;5110321;28;20066;-47
2021/07/02 06:24:44;;;;;;;2.60;2.30;;;20.80;71.30;;;;;;5112450;28;20555;-50
2021/07/02 06:27:10;;;;;;;2.60;2.40;;;20.90;71.40;;;;;;5111974;28;20052;-49
2021/07/02 06:29:36;;;;;;;2.95;2.40;;;20.80;71.30;;;;;;5112341;28;20142;-47
2021/07/02 06:32:02;;;;;;;3.20;2.60;;;20.80;71.30;;;;;;5110269;28;20126;-44
2021/07/02 06:34:28;;;;;;;2.25;2.03;;;20.90;71.40;;;;;;5112280;28;20464;-50
2021/07/02 06:36:54;;;;;;;3.08;2.50;;;20.80;71.30;;;;;;5111938;28;20079;-45
2021/07/02 06:39:20;;;;;;;3.55;2.75;;;20.90;71.40;;;;;;5112570;28;20047;-48
2021/07/02 06:41:46;;;;;;;2.80;2.35;;;20.90;71.30;;;;;;5110747;28;20457;-48
2021/07/02 06:44:12;;;;;;;2.97;2.35;;;20.80;71.30;;;;;;5092226;28;20048;-52
2021/07/02 06:46:58;;;;;;;2.92;2.20;;;20.80;71.30;;;;;;5076639;28;20153;-43
2021/07/02 06:49:23;;;;;;;2.80;2.47;;;20.90;71.30;;;;;;5091610;28;20048;-48
2021/07/02 06:51:49;;;;;;;2.80;2.10;;;20.80;71.30;;;;;;5091185;28;20139;-47
2021/07/02 06:54:15;;;;;;;2.95;2.65;;;20.80;71.30;;;;;;5092398;28;20048;-52
2021/07/02 06:57:00;;;;;;;2.47;2.22;;;20.80;71.30;;;;;;5091425;28;20143;-46
2021/07/02 06:59:26;;;;;;;2.25;2.00;;;20.80;71.30;;;;;;5091614;28;20467;-48
2021/07/02 07:01:53;;;;;;;2.75;2.25;;;20.80;71.30;;;;;;5091758;28;20106;-48
2021/07/02 07:04:20;;;;;;;3.00;2.40;;;20.80;71.30;;;;;;5092681;28;20056;-49
2021/07/02 07:06:46;;;;;;;2.33;2.13;;;20.80;71.20;;;;;;5091608;28;20105;-47
2021/07/02 07:09:12;;;;;;;3.08;2.17;;;20.90;71.30;;;;;;5091052;28;20055;-50
2021/07/02 07:11:38;;;;;;;2.67;2.22;;;20.90;71.30;;;;;;5091444;28;20071;-50
2021/07/02 07:14:04;;;;;;;3.17;2.42;;;20.80;71.20;;;;;;5092955;28;20057;-46
2021/07/02 07:16:29;;;;;;;3.13;2.60;;;20.90;71.30;;;;;;5094549;28;20140;-47
2021/07/02 07:18:55;;;;;;;2.47;2.10;;;20.90;71.30;;;;;;5112507;28;20425;-46
2021/07/02 07:21:21;;;;;;;2.60;2.40;;;20.90;71.30;;;;;;5111884;28;20503;-45
2021/07/02 07:23:47;;;;;;;2.47;2.20;;;20.80;71.20;;;;;;5109676;28;20056;-46
2021/07/02 07:26:12;;;;;;;2.65;2.30;;;20.90;71.30;;;;;;5111654;28;20044;-42
2021/07/02 07:28:38;;;;;;;2.58;2.38;;;20.80;71.20;;;;;;5111988;28;20052;-41
2021/07/02 07:31:06;;;;;;;2.50;2.20;;;20.90;71.30;;;;;;5111862;28;20071;-45
2021/07/02 07:33:35;;;;;;;2.72;2.42;;;20.90;71.30;;;;;;5109897;28;20118;-44
2021/07/02 07:36:01;;;;;;;2.33;2.10;;;20.80;71.20;;;;;;5111730;28;20048;-44
2021/07/02 07:38:27;;;;;;;2.25;2.00;;;20.90;71.30;;;;;;5111602;28;20040;-47
2021/07/02 07:40:55;;;;;;;2.80;2.47;;;20.80;71.20;;;;;;5111317;28;20451;-44
2021/07/02 07:43:22;;;;;;;3.70;2.70;;;20.80;71.20;;;;;;5111819;28;20043;-45
2021/07/02 07:45:48;;;;;;;2.47;2.20;;;20.80;71.20;;;;;;5109920;28;20150;-40
2021/07/02 07:48:14;;;;;;;3.00;2.63;;;20.90;71.30;;;;;;5111880;28;20177;-44
2021/07/02 07:50:44;;;;;;;3.10;2.72;;;20.80;71.20;;;;;;5114301;28;20047;-45
2021/07/02 07:53:10;;;;;;;2.83;2.30;;;20.90;71.20;;;;;;5115326;28;20070;-43
2021/07/02 07:55:38;;;;;;;2.53;2.10;;;20.80;71.20;;;;;;5112980;28;20123;-44
2021/07/02 07:58:04;;;;;;;2.67;2.30;;;20.90;71.20;;;;;;5115023;28;20074;-49
2021/07/02 08:00:30;;;;;;;2.72;1.98;;;20.80;71.20;;;;;;5115392;28;20444;-43
2021/07/02 08:02:56;;;;;;;3.30;2.45;;;20.80;71.20;;;;;;5115155;28;20159;-45
2021/07/02 08:05:22;;;;;;;3.17;2.33;;;20.80;71.20;;;;;;5113138;28;20506;-48
2021/07/02 08:07:49;;;;;;;3.03;2.17;;;20.90;71.20;;;;;;5115054;28;20433;-44
2021/07/02 08:10:20;;;;;;;2.58;2.10;;;20.90;71.20;;;;;;5114477;28;20063;-44
2021/07/02 08:12:49;;;;;;;2.70;2.25;;;20.90;71.20;;;;;;5114991;28;20047;-52
2021/07/02 08:15:16;;;;;;;2.42;2.10;;;20.90;71.20;;;;;;5114893;28;20059;-48
2021/07/02 08:17:42;;;;;;;2.58;2.00;;;20.80;71.20;;;;;;5112593;28;20066;-49
2021/07/02 08:20:10;;;;;;;3.55;2.33;;;20.80;71.10;;;;;;5100052;28;20048;-47
2021/07/02 08:22:37;;;;;;;2.42;2.22;;;20.90;71.20;;;;;;5094323;28;20048;-50
2021/07/02 08:25:04;;;;;;;2.75;2.55;;;20.90;71.20;;;;;;5094571;28;20062;-52
2021/07/02 08:27:34;;;;;;;2.80;2.28;;;20.80;71.20;;;;;;5095116;28;20044;-49
2021/07/02 08:30:11;;;;;;;3.20;2.53;;;20.90;71.20;;;;;;5094237;28;20067;-48
2021/07/02 08:32:37;;;;;;;3.20;2.78;;;20.90;71.20;;;;;;5093988;28;20533;-52
2021/07/02 08:35:05;;;;;;;2.38;2.15;;;20.90;71.20;;;;;;5094218;28;20044;-51
2021/07/02 08:37:34;;;;;;;2.78;2.38;;;20.90;71.20;;;;;;5095023;28;20104;-52
2021/07/02 08:40:00;;;;;;;2.85;2.30;;;20.90;71.20;;;;;;5094461;28;20434;-49
2021/07/02 08:42:25;;;;;;;2.80;2.45;;;20.80;71.10;;;;;;5093728;28;20048;-45
2021/07/02 08:44:51;;;;;;;2.45;2.03;;;20.90;71.20;;;;;;5093743;28;20044;-49
2021/07/02 08:47:18;;;;;;;2.70;2.08;;;20.90;71.20;;;;;;5093796;28;20086;-51
2021/07/02 08:49:45;;;;;;;2.47;1.92;;;20.80;71.10;;;;;;5094721;28;20136;-45
2021/07/02 08:52:11;;;;;;;2.10;1.90;;;20.90;71.20;;;;;;5093310;28;20083;-44
2021/07/02 08:54:36;;;;;;;2.42;2.22;;;20.90;71.20;;;;;;5093818;28;20056;-52
2021/07/02 08:57:02;;;;;;;2.83;2.20;;;20.90;71.10;;;;;;5093311;28;20411;-48
2021/07/02 08:59:29;;;;;;;2.50;2.13;;;20.90;71.10;;;;;;5094169;28;20051;-50
2021/07/02 09:01:56;;;;;;;2.47;2.25;;;20.90;71.10;;;;;;5093247;28;20048;-46
2021/07/02 09:04:26;;;;;;;2.40;2.17;;;20.90;71.10;;;;;;5093291;28;20055;-48
2021/07/02 09:06:59;;;;;;;2.65;2.40;;;20.80;71.10;;;;;;5093173;28;20051;-49
2021/07/02 09:09:44;;;;;;;2.50;2.25;;;20.80;71.10;;;;;;5094515;28;20044;-48
2021/07/02 09:12:10;;;;;;;2.33;2.10;;;20.90;71.10;;;;;;5093201;28;20052;-43
2021/07/02 09:14:36;;;;;;;2.38;2.10;;;20.80;71.10;;;;;;5092712;28;20131;-48
2021/07/02 09:17:11;;;;;;;2.88;2.20;;;20.80;71.10;;;;;;5093205;28;20079;-50
2021/07/02 09:19:37;;;;;;;2.13;1.92;;;20.80;71.00;;;;;;5094441;28;20533;-47
2021/07/02 09:22:13;;;;;;;2.47;2.10;;;20.90;71.10;;;;;;5093100;28;20130;-48
2021/07/02 09:24:45;;;;;;;2.30;2.10;;;20.80;71.00;;;;;;5106080;28;20043;-41
2021/07/02 09:27:33;;;;;;;2.28;2.08;;;20.90;71.10;;;;;;5113616;28;20130;-43
2021/07/02 09:30:08;;;;;;;2.30;2.10;;;20.90;71.10;;;;;;5113128;28;20043;-48
2021/07/02 09:32:45;;;;;;;2.72;2.20;;;20.90;71.10;;;;;;5112625;28;20469;-48
2021/07/02 09:35:12;;;;;;;2.50;2.30;;;20.90;71.10;;;;;;5114191;28;20044;-44
2021/07/02 09:37:43;;;;;;;2.72;2.17;;;20.80;71.00;;;;;;5113844;28;20083;-48
2021/07/02 09:40:27;;;;;;;3.03;2.22;;;20.80;71.10;;;;;;5113879;28;20051;-43
2021/07/02 09:43:07;;;;;;;2.22;2.03;;;20.90;71.00;;;;;;5111454;28;20047;-44
2021/07/02 09:45:52;;;;;;;2.47;2.00;;;20.90;71.00;;;;;;5112950;28;20131;-47
2021/07/02 09:48:20;;;;;;;2.63;2.20;;;20.90;71.70;;;;;;5113204;28;20047;-44
2021/07/02 09:50:56;;;;;;;2.65;2.15;;;20.80;71.00;;;;;;5112908;28;20047;-45
2021/07/02 09:53:25;;;;;;;2.75;2.00;;;20.90;71.10;;;;;;5111199;28;20046;-46
2021/07/02 09:55:55;;;;;;;2.92;2.25;;;20.90;71.10;;;;;;5112729;28;20048;-46
2021/07/02 09:58:24;;;;;;;2.42;2.03;;;20.90;71.10;;;;;;5113051;28;20058;-45
2021/07/02 10:00:59;;;;;;;2.22;2.03;;;20.80;71.00;;;;;;5112356;28;20449;-44
2021/07/02 10:03:36;;;;;;;2.33;2.05;;;20.90;71.00;;;;;;5110738;28;20482;-42
2021/07/02 10:06:03;;;;;;;2.55;2.17;;;20.90;71.00;;;;;;5112580;28;20094;-46
2021/07/02 10:08:34;;;;;;;2.45;1.90;;;20.90;71.10;;;;;;5112531;28;20185;-52
2021/07/02 10:11:02;;;;;;;2.33;2.13;;;20.90;71.70;;;;;;5112190;28;20039;-42
2021/07/02 10:13:31;;;;;;;2.50;1.88;;;20.90;71.00;;;;;;5110127;28;20042;-48
2021/07/02 10:16:01;;;;;;;2.42;2.17;;;20.90;71.00;;;;;;5111647;28;20059;-49
2021/07/02 10:18:28;;;;;;;1.95;1.80;;;20.90;71.10;;;;;;5112224;28;20140;-52
2021/07/02 10:21:00;;;;;;;2.20;2.00;;;20.90;71.10;;;;;;5112505;28;20150;-52
2021/07/02 10:23:33;;;;;;;2.05;1.80;;;20.90;71.20;;;;;;5111609;28;20047;-52
2021/07/02 10:26:00;;;;;;;2.10;1.88;;;20.90;71.20;;;;;;5091809;28;20210;-47
2021/07/02 10:28:28;;;;;;;2.17;1.83;;;20.90;71.20;;;;;;5108710;28;20048;-47
2021/07/02 10:30:54;;;;;;;2.25;2.00;;;20.90;71.20;;;;;;5112016;28;20082;-45
2021/07/02 10:33:22;;;;;;;2.03;1.83;;;20.90;71.10;;;;;;5111796;28;20070;-47
2021/07/02 10:36:06;;;;;;;2.72;2.17;;;21.00;71.10;;;;;;5100493;28;20052;-44
2021/07/02 10:38:37;;;;;;;2.47;2.10;;;20.90;71.00;;;;;;5091646;28;20063;-51
2021/07/02 10:41:14;;;;;;;2.30;1.83;;;20.90;71.70;;;;;;5091652;28;20119;-45
2021/07/02 10:44:09;;;;;;;2.42;2.15;;;20.90;71.10;;;;;;5091461;28;20128;-51
2021/07/02 10:46:47;;;;;;;2.47;2.17;;;21.00;71.10;;;;;;5092671;28;20076;-49
2021/07/02 10:49:13;;;;;;;2.00;1.80;;;20.90;71.00;;;;;;5091273;28;20044;-53
2021/07/02 10:51:48;;;;;;;2.05;1.85;;;21.00;71.10;;;;;;5091300;28;20484;-51
2021/07/02 10:54:25;;;;;;;1.88;1.70;;;21.00;71.10;;;;;;5091808;28;20044;-52
2021/07/02 10:56:57;;;;;;;2.25;2.00;;;21.00;71.10;;;;;;5092522;28;20089;-52
2021/07/02 10:59:38;;;;;;;2.15;1.95;;;20.90;71.00;;;;;;5091477;28;20044;-46
2021/07/02 11:02:07;;;;;;;2.17;1.90;;;20.90;71.00;;;;;;5091383;28;20044;-51
2021/07/02 11:04:39;;;;;;;2.22;1.92;;;20.90;71.10;;;;;;5091029;28;21013;-49
2021/07/02 11:07:25;;;;;;;2.38;2.03;;;21.00;71.10;;;;;;5092431;28;20040;-48
2021/07/02 11:10:00;;;;;;;;;;;21.00;71.10;;;;;;5091821;28;20177;-45
2021/07/02 11:12:45;;;;;;;2.67;2.15;;;21.00;71.10;;;;;;5091342;28;19927;-41
2021/07/02 11:15:13;;;;;;;2.35;2.10;;;21.00;71.10;;;;;;5091049;28;20051;-41
2021/07/02 11:17:48;;;;;;;2.47;2.10;;;21.00;71.10;;;;;;5092517;28;20409;-48
2021/07/02 11:20:18;;;;;;;;;;;21.00;71.10;;;;;;5091189;28;20047;-48
2021/07/02 11:22:49;;;;;;;2.83;2.20;;;21.00;71.10;;;;;;5091394;28;20125;-50
2021/07/02 11:25:26;;;;;;;2.83;2.05;;;21.00;71.10;;;;;;5095285;28;20480;-52
2021/07/02 11:27:56;;;;;;;2.28;1.85;;;21.00;71.10;;;;;;5096255;28;20048;-52
2021/07/02 11:30:27;;;;;;;1.83;1.58;;;21.00;71.10;;;;;;5101550;28;20119;-50
2021/07/02 11:32:54;;;;;;;2.42;2.17;;;21.00;71.10;;;;;;5115742;28;20172;-46
2021/07/02 11:36:09;;;;;;;2.50;2.08;;;21.10;71.20;;;;;;5115201;28;20048;-52
2021/07/02 11:38:45;;;;;;;2.08;1.65;;;21.10;71.20;;;;;;5072404;28;20161;-49
2021/07/02 11:41:28;;;;;;;2.13;1.75;;;21.00;71.10;;;;;;5072934;28;20172;-46
2021/07/02 11:43:56;;;;;;;2.15;1.95;;;21.10;71.20;;;;;;5072588;28;20091;-43
2021/07/02 11:46:22;;;;;;;1.95;1.75;;;21.00;71.10;;;;;;5072697;28;20052;-49
2021/07/02 11:48:56;;;;;;;2.00;1.80;;;21.00;71.10;;;;;;5072142;28;20083;-40
2021/07/02 11:51:28;;;;;;;1.88;1.70;;;21.10;71.10;;;;;;5052639;28;20067;-50
2021/07/02 11:53:59;;;;;;;2.10;1.90;;;21.10;71.10;;;;;;5053280;28;20350;-49
2021/07/02 11:56:30;;;;;;;1.98;1.70;;;21.10;71.20;;;;;;5052641;28;20057;-45
2021/07/02 11:58:59;;;;;;;2.65;1.90;;;21.10;71.10;;;;;;5052451;28;20172;-48
2021/07/02 12:01:37;;;;;;;2.30;2.10;;;21.10;71.10;;;;;;5069570;28;20060;-51
2021/07/02 12:04:06;;;;;;;2.08;1.85;;;21.10;71.10;;;;;;5072116;28;20056;-52
2021/07/02 12:06:35;;;;;;;1.85;1.67;;;21.10;71.10;;;;;;5071864;28;20048;-52
2021/07/02 12:09:06;;;;;;;1.98;1.70;;;21.10;71.10;;;;;;5072173;28;20195;-45
2021/07/02 12:11:32;;;;;;;1.83;1.65;;;21.10;71.10;;;;;;5071612;28;20056;-48
2021/07/02 12:13:58;;;;;;;2.33;1.73;;;21.10;71.00;;;;;;5072089;28;20539;-45
2021/07/02 12:16:30;;;;;;;1.77;1.60;;;21.10;71.00;;;;;;5090712;28;20419;-46
2021/07/02 12:18:56;;;;;;;2.03;1.80;;;21.10;71.00;;;;;;5094508;28;20044;-50
2021/07/02 12:21:28;;;;;;;1.75;1.65;;;21.10;71.00;;;;;;5095026;28;20123;-45
2021/07/02 12:23:56;;;;;;;1.77;1.67;;;21.20;71.00;;;;;;5094341;28;20119;-47
2021/07/02 12:26:25;;;;;;;1.88;1.75;;;21.20;71.00;;;;;;5094281;28;20044;-44
2021/07/02 12:29:00;;;;;;;2.03;1.65;;;21.20;71.00;;;;;;5094313;28;20097;-49
2021/07/02 12:31:47;;;;;;;1.67;1.58;;;21.20;71.00;;;;;;5095209;28;20127;-44
2021/07/02 12:34:14;;;;;;;2.03;1.83;;;21.20;71.00;;;;;;5093253;28;20048;-49
2021/07/02 12:36:58;;;;;;;2.10;1.65;;;21.20;71.00;;;;;;5112112;28;20047;-47
2021/07/02 12:39:30;;;;;;;1.63;1.52;;;21.20;70.90;;;;;;5114081;28;20043;-50
2021/07/02 12:42:00;;;;;;;1.60;1.50;;;21.20;71.00;;;;;;5113796;28;20043;-42
2021/07/02 12:44:27;;;;;;;2.38;1.80;;;21.20;70.90;;;;;;5113586;28;20056;-45
2021/07/02 12:46:53;;;;;;;1.85;1.67;;;21.20;70.90;;;;;;5114139;28;20078;-45
2021/07/02 12:49:23;;;;;;;1.88;1.40;;;21.20;70.90;;;;;;5114127;28;20044;-47
2021/07/02 12:54:47;;;;;;;1.50;1.40;;;21.20;70.90;;;;;;5111946;28;20070;-43
2021/07/02 12:57:25;;;;;;;1.83;1.55;;;21.30;70.90;;;;;;5113996;28;20047;-43
2021/07/02 12:59:57;;;;;;;2.45;2.15;;;21.30;70.90;;;;;;5113652;28;20450;-45